createdAt,value
2022-12-03T00:02:23.845Z,85.17
2022-12-03T00:05:27.094Z,85.27
2022-12-03T00:08:29.755Z,85.05
2022-12-03T00:11:32.500Z,85.16
2022-12-03T00:14:36.882Z,84.89
2022-12-03T00:17:41.374Z,84.83
2022-12-03T00:20:43.892Z,84.80
2022-12-03T00:23:46.466Z,85.12
2022-12-03T00:26:48.929Z,84.90
2022-12-03T00:29:51.411Z,84.87
2022-12-03T00:32:53.920Z,84.70
2022-12-03T00:35:56.467Z,85.14
2022-12-03T00:38:58.883Z,84.73
2022-12-03T00:42:01.442Z,84.49
2022-12-03T00:45:04.260Z,84.57
2022-12-03T00:48:06.870Z,85.17
2022-12-03T00:51:09.591Z,85.27
2022-12-03T00:54:12.075Z,84.73
2022-12-03T00:57:14.647Z,85.05
2022-12-03T01:00:17.759Z,84.68
2022-12-03T01:03:20.365Z,85.01
2022-12-03T01:06:23.068Z,84.61
2022-12-03T01:09:25.537Z,85.13
2022-12-03T01:12:27.968Z,84.24
2022-12-03T01:15:30.352Z,84.47
2022-12-03T01:18:33.090Z,84.44
2022-12-03T01:21:35.577Z,84.32
2022-12-03T01:24:38.040Z,84.48
2022-12-03T01:27:40.588Z,84.79
2022-12-03T01:31:01.904Z,83.88
2022-12-03T01:34:04.980Z,83.58
2022-12-03T01:37:07.341Z,84.77
2022-12-03T01:40:16.203Z,85.26
2022-12-03T01:43:18.984Z,85.54
2022-12-03T01:46:25.177Z,85.82
2022-12-03T01:49:33.446Z,86.79
2022-12-03T01:52:38.896Z,86.64
2022-12-03T01:55:48.317Z,86.08
2022-12-03T01:58:51.142Z,85.88
2022-12-03T02:01:53.647Z,85.15
2022-12-03T02:04:57.304Z,83.80
2022-12-03T02:08:01.263Z,84.07
2022-12-03T02:11:17.488Z,84.30
2022-12-03T02:14:21.856Z,84.41
2022-12-03T02:17:25.454Z,84.37
2022-12-03T02:20:28.112Z,84.27
2022-12-03T02:23:57.526Z,83.88
2022-12-03T02:26:59.941Z,85.13
2022-12-03T02:30:02.552Z,85.00
2022-12-03T02:33:05.891Z,84.85
2022-12-03T02:36:09.104Z,84.62
2022-12-03T02:39:11.576Z,84.47
2022-12-03T02:42:32.554Z,84.56
2022-12-03T02:45:48.432Z,83.91
2022-12-03T02:48:50.944Z,82.83
2022-12-03T02:51:53.644Z,81.38
2022-12-03T02:54:56.361Z,81.17
2022-12-03T02:57:58.948Z,80.22
2022-12-03T03:01:03.834Z,81.71
2022-12-03T03:04:06.957Z,82.55
2022-12-03T03:07:09.802Z,82.07
2022-12-03T03:10:15.373Z,81.86
2022-12-03T03:13:19.432Z,82.68
2022-12-03T03:16:21.974Z,83.13
2022-12-03T03:19:26.365Z,82.77
2022-12-03T03:22:38.420Z,84.00
2022-12-03T03:25:44.209Z,84.12
2022-12-03T03:28:50.490Z,84.41
2022-12-03T03:31:54.456Z,84.13
2022-12-03T03:34:57.118Z,84.99
2022-12-03T03:37:59.889Z,84.99
2022-12-03T03:41:05.667Z,84.51
2022-12-03T03:44:09.442Z,85.47
2022-12-03T03:47:12.420Z,86.05
2022-12-03T03:50:16.412Z,85.21
2022-12-03T03:53:21.089Z,85.55
2022-12-03T03:56:23.658Z,85.82
2022-12-03T03:59:26.458Z,85.34
2022-12-03T04:02:28.966Z,85.91
2022-12-03T04:05:31.787Z,86.27
2022-12-03T04:08:34.631Z,86.46
2022-12-03T04:11:55.551Z,86.75
2022-12-03T04:14:58.584Z,86.69
2022-12-03T04:18:19.652Z,86.29
2022-12-03T04:21:41.984Z,85.91
2022-12-03T04:24:44.356Z,86.08
2022-12-03T04:28:05.642Z,86.18
2022-12-03T04:31:29.524Z,86.50
2022-12-03T04:34:50.938Z,86.71
2022-12-03T04:37:53.569Z,86.81
2022-12-03T04:41:02.038Z,86.90
2022-12-03T04:44:23.122Z,87.41
2022-12-03T04:47:25.585Z,87.41
2022-12-03T04:50:28.250Z,87.64
2022-12-03T04:53:30.638Z,87.48
2022-12-03T04:56:33.087Z,87.57
2022-12-03T04:59:36.361Z,87.62
2022-12-03T05:02:39.155Z,87.22
2022-12-03T05:05:41.938Z,87.27
2022-12-03T05:08:44.560Z,86.95
2022-12-03T05:11:47.318Z,87.31
2022-12-03T05:14:49.729Z,86.98
2022-12-03T05:17:52.491Z,87.46
2022-12-03T05:20:55.149Z,87.50
2022-12-03T05:23:57.884Z,87.16
2022-12-03T05:27:00.334Z,87.46
2022-12-03T05:30:02.885Z,87.75
2022-12-03T05:33:05.417Z,88.18
2022-12-03T05:36:08.134Z,88.74
2022-12-03T05:39:10.594Z,89.34
2022-12-03T05:42:31.625Z,89.34
2022-12-03T05:45:37.416Z,89.28
2022-12-03T05:48:48.423Z,89.73
2022-12-03T05:51:56.671Z,90.34
2022-12-03T05:55:01.030Z,90.77
2022-12-03T05:58:04.990Z,91.15
2022-12-03T06:01:07.536Z,91.36
2022-12-03T06:04:10.294Z,90.99
2022-12-03T06:07:14.266Z,90.83
2022-12-03T06:10:20.853Z,90.96
2022-12-03T06:13:23.623Z,91.17
2022-12-03T06:16:26.170Z,91.29
2022-12-03T06:19:28.765Z,90.87
2022-12-03T06:22:31.302Z,90.77
2022-12-03T06:25:33.724Z,90.66
2022-12-03T06:28:36.197Z,90.80
2022-12-03T06:31:38.892Z,89.63
2022-12-03T06:34:41.754Z,88.97
2022-12-03T06:37:44.221Z,88.65
2022-12-03T06:40:46.652Z,89.24
2022-12-03T06:43:49.120Z,89.55
2022-12-03T06:46:51.882Z,89.31
2022-12-03T06:49:54.475Z,89.81
2022-12-03T06:52:57.022Z,89.39
2022-12-03T06:56:00.063Z,89.95
2022-12-03T06:59:02.660Z,89.67
2022-12-03T07:02:05.514Z,88.76
2022-12-03T07:05:08.547Z,87.83
2022-12-03T07:08:11.126Z,87.89
2022-12-03T07:11:31.866Z,87.95
2022-12-03T07:14:34.585Z,87.80
2022-12-03T07:17:37.317Z,87.97
2022-12-03T07:20:39.705Z,87.83
2022-12-03T07:23:42.268Z,87.63
2022-12-03T07:26:45.044Z,87.86
2022-12-03T07:29:47.481Z,87.44
2022-12-03T07:32:50.403Z,87.65
2022-12-03T07:35:52.812Z,88.10
2022-12-03T07:38:55.279Z,87.99
2022-12-03T07:41:57.843Z,87.49
2022-12-03T07:45:00.341Z,87.05
2022-12-03T07:48:02.859Z,86.79
2022-12-03T07:51:05.624Z,87.08
2022-12-03T07:54:08.161Z,87.40
2022-12-03T07:57:10.877Z,86.83
2022-12-03T08:00:14.718Z,87.11
2022-12-03T08:03:17.155Z,86.63
2022-12-03T08:06:20.848Z,87.22
2022-12-03T08:09:23.539Z,87.23
2022-12-03T08:12:40.430Z,86.40
2022-12-03T08:15:43.433Z,85.29
2022-12-03T08:18:47.286Z,85.43
2022-12-03T08:21:49.855Z,85.41
2022-12-03T08:24:52.529Z,85.01
2022-12-03T08:28:00.334Z,84.61
2022-12-03T08:31:20.174Z,84.30
2022-12-03T08:34:26.564Z,82.57
2022-12-03T08:37:29.962Z,81.76
2022-12-03T08:40:37.440Z,81.70
2022-12-03T08:43:42.874Z,81.63
2022-12-03T08:46:45.472Z,81.36
2022-12-03T08:50:03.341Z,80.98
2022-12-03T08:53:18.777Z,80.09
2022-12-03T08:56:30.458Z,80.22
2022-12-03T08:59:32.887Z,80.57
2022-12-03T09:02:35.684Z,79.73
2022-12-03T09:05:38.115Z,79.86
2022-12-03T09:08:40.583Z,80.01
2022-12-03T09:11:43.514Z,79.92
2022-12-03T09:14:46.019Z,80.68
2022-12-03T09:17:48.992Z,80.72
2022-12-03T09:20:51.549Z,80.70
2022-12-03T09:23:54.004Z,80.34
2022-12-03T09:26:56.617Z,80.32
2022-12-03T09:29:59.138Z,80.05
2022-12-03T09:33:01.844Z,80.23
2022-12-03T09:36:04.997Z,80.38
2022-12-03T09:39:07.756Z,80.44
2022-12-03T09:42:11.380Z,80.41
2022-12-03T09:45:16.033Z,80.07
2022-12-03T09:48:20.734Z,79.30
2022-12-03T09:51:30.327Z,78.84
2022-12-03T09:54:34.502Z,78.27
2022-12-03T09:57:37.021Z,78.46
2022-12-03T10:00:41.268Z,77.98
2022-12-03T10:03:49.664Z,77.61
2022-12-03T10:06:52.344Z,77.13
2022-12-03T10:09:54.988Z,77.16
2022-12-03T10:12:57.843Z,76.49
2022-12-03T10:16:01.088Z,75.50
2022-12-03T10:19:03.585Z,74.56
2022-12-03T10:22:06.795Z,75.69
2022-12-03T10:25:09.553Z,75.38
2022-12-03T10:28:12.285Z,75.60
2022-12-03T10:31:15.607Z,74.97
2022-12-03T10:34:47.618Z,74.94
2022-12-03T10:38:00.915Z,74.46
2022-12-03T10:41:20.921Z,73.55
2022-12-03T10:44:30.550Z,73.37
2022-12-03T10:47:33.100Z,73.56
2022-12-03T10:50:36.196Z,73.50
2022-12-03T10:53:40.943Z,73.28
2022-12-03T10:56:44.617Z,74.22
2022-12-03T10:59:47.565Z,74.82
2022-12-03T11:02:56.760Z,74.60
2022-12-03T11:06:06.139Z,75.37
2022-12-03T11:09:21.070Z,75.03
2022-12-03T11:12:27.740Z,74.43
2022-12-03T11:15:45.583Z,73.97
2022-12-03T11:18:51.087Z,74.15
2022-12-03T11:22:05.725Z,74.38
2022-12-03T11:25:29.077Z,74.12
2022-12-03T11:28:32.796Z,73.64
2022-12-03T11:31:48.567Z,73.91
2022-12-03T11:34:51.313Z,73.76
2022-12-03T11:37:54.203Z,73.98
2022-12-03T11:41:12.090Z,73.68
2022-12-03T11:44:32.187Z,74.04
2022-12-03T11:47:58.026Z,73.12
2022-12-03T11:51:00.544Z,72.54
2022-12-03T11:54:03.118Z,72.52
2022-12-03T11:57:25.567Z,72.60
2022-12-03T12:00:28.656Z,73.29
2022-12-03T12:03:49.767Z,73.74
2022-12-03T12:06:53.603Z,73.04
2022-12-03T12:09:57.395Z,73.55
2022-12-03T12:13:00.435Z,73.46
2022-12-03T12:16:07.486Z,73.46
2022-12-03T12:19:29.251Z,73.05
2022-12-03T12:22:31.927Z,73.22
2022-12-03T12:25:38.314Z,72.89
2022-12-03T12:28:41.125Z,72.51
2022-12-03T12:31:44.359Z,72.17
2022-12-03T12:34:53.833Z,72.63
2022-12-03T12:38:16.582Z,72.49
2022-12-03T12:41:19.112Z,72.67
2022-12-03T12:44:23.666Z,72.32
2022-12-03T12:47:26.297Z,72.43
2022-12-03T12:50:31.421Z,72.31
2022-12-03T12:53:35.608Z,72.40
2022-12-03T12:56:39.194Z,71.63
2022-12-03T12:59:41.984Z,72.32
2022-12-03T13:02:58.503Z,72.35
2022-12-03T13:06:01.988Z,72.15
2022-12-03T13:09:14.621Z,72.76
2022-12-03T13:12:23.130Z,72.62
2022-12-03T13:15:39.250Z,72.37
2022-12-03T13:18:49.137Z,72.95
2022-12-03T13:21:54.458Z,73.08
2022-12-03T13:24:58.669Z,73.20
2022-12-03T13:28:01.228Z,73.20
2022-12-03T13:31:22.035Z,72.79
2022-12-03T13:34:27.289Z,73.14
2022-12-03T13:37:31.463Z,73.29
2022-12-03T13:40:36.632Z,73.82
2022-12-03T13:43:44.515Z,74.31
2022-12-03T13:46:47.675Z,74.91
2022-12-03T13:50:03.986Z,75.27
2022-12-03T13:53:48.039Z,75.33
2022-12-03T13:56:50.912Z,75.79
2022-12-03T13:59:53.901Z,76.01
2022-12-03T14:02:56.891Z,76.20
2022-12-03T14:05:59.420Z,76.14
2022-12-03T14:09:01.924Z,76.83
2022-12-03T14:12:23.067Z,77.15
2022-12-03T14:15:26.516Z,77.55
2022-12-03T14:18:29.163Z,77.67
2022-12-03T14:21:31.917Z,78.37
2022-12-03T14:24:34.510Z,78.98
2022-12-03T14:27:37.216Z,79.38
2022-12-03T14:30:39.636Z,79.63
2022-12-03T14:33:42.289Z,79.67
2022-12-03T14:36:44.746Z,79.44
2022-12-03T14:39:47.432Z,80.24
2022-12-03T14:42:50.133Z,80.92
2022-12-03T14:45:52.966Z,80.96
2022-12-03T14:48:56.683Z,81.17
2022-12-03T14:51:59.965Z,81.28
2022-12-03T14:55:02.500Z,82.27
2022-12-03T14:58:05.238Z,83.08
2022-12-03T15:01:07.873Z,83.77
2022-12-03T15:04:10.784Z,83.55
2022-12-03T15:07:13.280Z,83.58
2022-12-03T15:10:16.902Z,84.08
2022-12-03T15:13:19.340Z,83.57
2022-12-03T15:16:22.019Z,83.47
2022-12-03T15:19:24.898Z,84.10
2022-12-03T15:22:27.636Z,84.91
2022-12-03T15:25:30.732Z,85.08
2022-12-03T15:28:33.786Z,85.36
2022-12-03T15:31:36.291Z,84.77
2022-12-03T15:34:39.692Z,84.86
2022-12-03T15:37:42.445Z,84.67
2022-12-03T15:40:45.499Z,83.99
2022-12-03T15:43:52.724Z,84.75
2022-12-03T15:46:55.220Z,84.77
2022-12-03T15:49:57.728Z,84.95
2022-12-03T15:53:00.232Z,84.51
2022-12-03T15:56:02.885Z,84.52
2022-12-03T15:59:05.560Z,85.14
2022-12-03T16:02:08.138Z,85.24
2022-12-03T16:05:12.780Z,85.43
2022-12-03T16:08:15.563Z,86.04
2022-12-03T16:11:19.062Z,86.19
2022-12-03T16:14:21.504Z,85.92
2022-12-03T16:17:24.369Z,86.71
2022-12-03T16:20:27.292Z,87.06
2022-12-03T16:23:29.900Z,86.46
2022-12-03T16:26:32.650Z,86.38
2022-12-03T16:29:35.466Z,86.70
2022-12-03T16:32:38.032Z,87.25
2022-12-03T16:35:40.539Z,87.08
2022-12-03T16:38:43.286Z,87.42
2022-12-03T16:41:45.960Z,87.49
2022-12-03T16:45:08.796Z,87.58
2022-12-03T16:48:11.231Z,87.82
2022-12-03T16:51:14.108Z,87.04
2022-12-03T16:54:16.772Z,87.24
2022-12-03T16:57:19.176Z,87.26
2022-12-03T17:00:22.040Z,86.64
2022-12-03T17:03:28.962Z,86.93
2022-12-03T17:06:36.492Z,86.95
2022-12-03T17:09:39.002Z,87.65
2022-12-03T17:13:08.330Z,87.50
2022-12-03T17:16:06.839Z,87.06
2022-12-03T17:19:09.513Z,87.22
2022-12-03T17:22:12.111Z,86.61
2022-12-03T17:25:14.777Z,86.35
2022-12-03T17:28:17.234Z,86.95
2022-12-03T17:31:20.384Z,87.02
2022-12-03T17:34:22.819Z,87.35
2022-12-03T17:37:25.301Z,87.56
2022-12-03T17:40:28.127Z,87.25
2022-12-03T17:43:30.906Z,86.86
2022-12-03T17:46:33.462Z,87.42
2022-12-03T17:49:36.095Z,87.63
2022-12-03T17:52:38.832Z,87.39
2022-12-03T17:55:44.769Z,87.66
2022-12-03T17:58:48.090Z,87.64
2022-12-03T18:01:50.627Z,87.73
2022-12-03T18:04:53.173Z,87.93
2022-12-03T18:07:55.721Z,87.96
2022-12-03T18:10:58.345Z,87.92
2022-12-03T18:14:01.511Z,87.82
2022-12-03T18:17:04.038Z,87.58
2022-12-03T18:20:08.647Z,87.78
2022-12-03T18:23:12.055Z,88.24
2022-12-03T18:26:14.938Z,87.60
2022-12-03T18:29:17.962Z,87.56
2022-12-03T18:32:28.743Z,87.94
2022-12-03T18:35:32.349Z,88.09
2022-12-03T18:38:35.031Z,87.39
2022-12-03T18:41:37.704Z,88.00
2022-12-03T18:44:42.742Z,87.72
2022-12-03T18:47:49.371Z,88.26
2022-12-03T18:50:52.195Z,88.40
2022-12-03T18:53:54.963Z,87.90
2022-12-03T18:56:57.671Z,87.78
2022-12-03T19:00:00.366Z,87.75
2022-12-03T19:03:04.369Z,87.76
2022-12-03T19:06:17.186Z,87.32
2022-12-03T19:09:22.085Z,88.26
2022-12-03T19:12:25.457Z,88.36
2022-12-03T19:15:28.218Z,88.34
2022-12-03T19:18:31.245Z,88.42
2022-12-03T19:21:34.340Z,88.57
2022-12-03T19:24:37.184Z,88.53
2022-12-03T19:27:42.272Z,88.50
2022-12-03T19:30:56.094Z,88.40
2022-12-03T19:34:01.086Z,88.95
2022-12-03T19:37:07.529Z,88.86
2022-12-03T19:40:10.491Z,88.35
2022-12-03T19:43:13.623Z,88.38
2022-12-03T19:46:17.041Z,88.07
2022-12-03T19:49:21.366Z,88.54
2022-12-03T19:52:24.173Z,88.52
2022-12-03T19:55:26.887Z,87.93
2022-12-03T19:58:29.991Z,87.44
2022-12-03T20:01:35.351Z,88.23
2022-12-03T20:04:38.478Z,88.49
2022-12-03T20:07:41.233Z,88.38
2022-12-03T20:10:43.784Z,88.23
2022-12-03T20:13:53.713Z,88.03
2022-12-03T20:16:56.344Z,87.58
2022-12-03T20:19:59.489Z,87.80
2022-12-03T20:23:02.298Z,87.03
2022-12-03T20:26:10.562Z,87.57
2022-12-03T20:29:13.941Z,87.89
2022-12-03T20:32:16.809Z,87.30
2022-12-03T20:35:19.570Z,87.98
2022-12-03T20:38:23.813Z,87.89
2022-12-03T20:41:27.800Z,87.54
2022-12-03T20:44:30.179Z,89.11
2022-12-03T20:47:32.843Z,88.93
2022-12-03T20:50:38.535Z,88.79
2022-12-03T20:53:43.170Z,88.68
2022-12-03T20:56:45.791Z,88.34
2022-12-03T20:59:48.745Z,88.42
2022-12-03T21:02:52.277Z,88.58
2022-12-03T21:06:01.419Z,88.96
2022-12-03T21:09:06.295Z,88.52
2022-12-03T21:12:09.062Z,88.42
2022-12-03T21:15:11.895Z,88.25
2022-12-03T21:18:16.611Z,88.03
2022-12-03T21:21:19.775Z,89.46
2022-12-03T21:24:22.534Z,87.62
2022-12-03T21:27:25.008Z,87.60
2022-12-03T21:30:27.940Z,87.52
2022-12-03T21:33:31.333Z,87.44
2022-12-03T21:36:34.264Z,88.46
2022-12-03T21:39:36.970Z,88.22
2022-12-03T21:42:39.608Z,88.69
2022-12-03T21:45:42.901Z,88.70
2022-12-03T21:48:45.716Z,88.61
2022-12-03T21:51:48.375Z,89.27
2022-12-03T21:54:54.419Z,88.49
2022-12-03T21:57:57.058Z,88.21
2022-12-03T22:00:59.594Z,88.41
2022-12-03T22:04:02.041Z,87.58
2022-12-03T22:07:06.780Z,88.26
2022-12-03T22:10:11.820Z,88.38
2022-12-03T22:13:14.683Z,88.48
2022-12-03T22:16:22.007Z,88.98
2022-12-03T22:19:25.620Z,88.46
2022-12-03T22:22:28.122Z,88.63
2022-12-03T22:25:30.692Z,88.94
2022-12-03T22:28:34.224Z,88.56
2022-12-03T22:31:36.884Z,88.30
2022-12-03T22:34:41.248Z,89.21
2022-12-03T22:37:43.743Z,89.23
2022-12-03T22:40:47.153Z,89.30
2022-12-03T22:43:50.030Z,89.67
2022-12-03T22:46:52.593Z,90.10
2022-12-03T22:49:57.466Z,88.68
2022-12-03T22:53:00.028Z,88.85
2022-12-03T22:56:02.520Z,88.07
2022-12-03T22:59:05.592Z,88.29
2022-12-03T23:02:08.052Z,88.33
2022-12-03T23:05:10.445Z,89.47
2022-12-03T23:08:16.857Z,90.22
2022-12-03T23:11:20.019Z,90.54
2022-12-03T23:14:22.515Z,89.43
2022-12-03T23:17:24.983Z,89.04
2022-12-03T23:20:28.242Z,88.63
2022-12-03T23:23:30.679Z,88.22
2022-12-03T23:26:38.128Z,88.85
2022-12-03T23:29:40.687Z,90.46
2022-12-03T23:32:44.495Z,90.57
2022-12-03T23:35:47.056Z,90.50
2022-12-03T23:38:50.077Z,90.41
2022-12-03T23:41:52.903Z,89.74
2022-12-03T23:44:55.372Z,90.08
2022-12-03T23:47:58.477Z,89.30
2022-12-03T23:51:22.545Z,89.65
2022-12-03T23:54:24.986Z,89.12
2022-12-03T23:57:27.600Z,89.22
